British Reason — 2ICI7 — position and weather

sailwx.info

Track history (hours):
 
Tides and Currents Weather Stations Pressure Air Temp Water Temp Dewpoint Dewpoint Depression Visibility Wind Speed Wind Dir Waves Ship Positions

British Reason

Last reported at 2017-Nov-10 10:13 UTC. Time now 2017-Nov-21 04:18 UTC.
Position S 34°02' E 018°12'.
Warning: this ship's position is 10 days out of date.

Length 250 m; draft 13.5 m.

Type: Ship. MMSI: 235108534.

Date/timePositionNaut miles runAvg speedWind from/ knotsBaromVisibWave heightAir tempDewpointWater temp
2017-Nov-10 10:13S 34°02' E 018°12'312.8
2017-Nov-10 10:00S 33°59' E 018°14'611.8
2017-Nov-10 09:30S 33°54' E 018°17'2 3.7
2017-Nov-10 09:00S 33°52' E 018°17'0 0.5
2017-Nov-10 08:29S 33°52' E 018°17'0 0.9
2017-Nov-10 08:00S 33°52' E 018°17'1 1.4
2017-Nov-10 07:30S 33°51' E 018°16'3 5.8
2017-Nov-10 06:58S 33°49' E 018°15'611.6
2017-Nov-10 06:29S 33°44' E 018°10'  
2017-Nov-02 09:47S 05°53' E 011°41'312.2
2017-Nov-02 09:30S 05°52' E 011°38'612.2
2017-Nov-02 09:00S 05°51' E 011°32'612.3
2017-Nov-02 08:30S 05°50' E 011°26'611.8
2017-Nov-02 08:00S 05°46' E 011°21'612.2
2017-Nov-02 07:29S 05°42' E 011°17'612.3
2017-Nov-02 07:00S 05°38' E 011°12'612.1
2017-Nov-02 06:30S 05°33' E 011°08'612.2
2017-Nov-02 06:00S 05°29' E 011°04'612.1
2017-Nov-02 05:30S 05°25' E 010°60'812.3
2017-Nov-02 04:52S 05°19' E 010°54'1512.2
2017-Nov-02 03:36S 05°08' E 010°43'  
Track history (hours):
 
Tides and Currents Weather Stations Pressure Air Temp Water Temp Dewpoint Dewpoint Depression Visibility Wind Speed Wind Dir Waves Ship Positions

British Reason

Last reported at 2017-Nov-10 10:13 UTC. Time now 2017-Nov-21 04:18 UTC.
Position S 34°02' E 018°12'.
Warning: this ship's position is 10 days out of date.

Length 250 m; draft 13.5 m.

Type: Ship. MMSI: 235108534.

Date/timePositionNaut miles runAvg speedWind from/ knotsBaromVisibWave heightAir tempDewpointWater temp
2017-Nov-10 10:13S 34°02' E 018°12'312.8
2017-Nov-10 10:00S 33°59' E 018°14'611.8
2017-Nov-10 09:30S 33°54' E 018°17'2 3.7
2017-Nov-10 09:00S 33°52' E 018°17'0 0.5
2017-Nov-10 08:29S 33°52' E 018°17'0 0.9
2017-Nov-10 08:00S 33°52' E 018°17'1 1.4
2017-Nov-10 07:30S 33°51' E 018°16'3 5.8
2017-Nov-10 06:58S 33°49' E 018°15'611.6
2017-Nov-10 06:29S 33°44' E 018°10'  
2017-Nov-02 09:47S 05°53' E 011°41'312.2
2017-Nov-02 09:30S 05°52' E 011°38'612.2
2017-Nov-02 09:00S 05°51' E 011°32'612.3
2017-Nov-02 08:30S 05°50' E 011°26'611.8
2017-Nov-02 08:00S 05°46' E 011°21'612.2
2017-Nov-02 07:29S 05°42' E 011°17'612.3
2017-Nov-02 07:00S 05°38' E 011°12'612.1
2017-Nov-02 06:30S 05°33' E 011°08'612.2
2017-Nov-02 06:00S 05°29' E 011°04'612.1
2017-Nov-02 05:30S 05°25' E 010°60'812.3
2017-Nov-02 04:52S 05°19' E 010°54'1512.2
2017-Nov-02 03:36S 05°08' E 010°43'  

Dump ship's entire track history